Robbins, North Carolina
Current Conditions -  °F | °C
As of 8:15 AM on Friday 28 Nov 2014 (Local Time) from KSOP Reporting Station
Clear Clear  
Wind Chill: 27°   Ceiling: Unl
Heat Index: 32°   Visibility: 10mi
Dew Point: -17°   Wind: 5mph
Humidity: 12%   Direction: 330°NNW
Pressure: 30.36"   Gusts: NA
Location:  35.43°N, 79.59°W
Report Text: KSOP 281315Z AUTO 33004KT 10SM CLR 00/M27 A3036 RMK AO1
Loading
Personal Weather Stations






























Interactive Weather Map New forecast layout! Learn more

10-Day Weather Forecast

Advertisements
Track Severe Weather on mobile